sensor_id;sensor_type;location;lat;lon;timestamp;pressure;altitude;pressure_sealevel;temperature;humidity
26719;BME280;14326;50.794;6.060;2022-09-14T05:59:01;98602.66;;;16.64;100.00
26719;BME280;14326;50.794;6.060;2022-09-14T06:01:55;98600.13;;;16.58;100.00
26719;BME280;14326;50.794;6.060;2022-09-14T06:04:43;98601.16;;;16.54;100.00
26719;BME280;14326;50.794;6.060;2022-09-14T06:07:28;98608.16;;;16.59;100.00
26719;BME280;14326;50.794;6.060;2022-09-14T06:10:18;98608.91;;;16.64;100.00
26719;BME280;14326;50.794;6.060;2022-09-14T06:12:54;98604.38;;;16.66;100.00
26719;BME280;14326;50.794;6.060;2022-09-14T06:15:23;98605.19;;;16.68;100.00
26719;BME280;14326;50.794;6.060;2022-09-14T06:17:50;98606.25;;;16.63;100.00
26719;BME280;14326;50.794;6.060;2022-09-14T06:20:17;98606.53;;;16.54;100.00
26719;BME280;14326;50.794;6.060;2022-09-14T06:22:43;98602.16;;;16.50;100.00
26719;BME280;14326;50.794;6.060;2022-09-14T06:25:10;98602.16;;;16.50;100.00
26719;BME280;14326;50.794;6.060;2022-09-14T06:27:37;98595.88;;;16.51;100.00
26719;BME280;14326;50.794;6.060;2022-09-14T06:30:05;98596.78;;;16.50;100.00
26719;BME280;14326;50.794;6.060;2022-09-14T06:32:33;98593.28;;;16.48;100.00
26719;BME280;14326;50.794;6.060;2022-09-14T06:34:59;98585.44;;;16.42;100.00
26719;BME280;14326;50.794;6.060;2022-09-14T06:37:27;98571.09;;;16.43;100.00
26719;BME280;14326;50.794;6.060;2022-09-14T06:39:53;98577.34;;;16.43;100.00
26719;BME280;14326;50.794;6.060;2022-09-14T06:42:20;98580.94;;;16.42;100.00
26719;BME280;14326;50.794;6.060;2022-09-14T06:44:47;98575.63;;;16.41;100.00
26719;BME280;14326;50.794;6.060;2022-09-14T06:47:13;98577.41;;;16.40;100.00
26719;BME280;14326;50.794;6.060;2022-09-14T06:49:41;98579.94;;;16.45;100.00
26719;BME280;14326;50.794;6.060;2022-09-14T06:52:08;98578.09;;;16.47;100.00
26719;BME280;14326;50.794;6.060;2022-09-14T06:54:35;98584.16;;;16.53;100.00
26719;BME280;14326;50.794;6.060;2022-09-14T06:57:01;98588.66;;;16.53;100.00
26719;BME280;14326;50.794;6.060;2022-09-14T06:59:29;98578.06;;;16.48;100.00
26719;BME280;14326;50.794;6.060;2022-09-14T07:01:56;98574.50;;;16.48;100.00
26719;BME280;14326;50.794;6.060;2022-09-14T07:04:23;98571.16;;;16.39;100.00
26719;BME280;14326;50.794;6.060;2022-09-14T07:06:51;98574.78;;;16.38;100.00
26719;BME280;14326;50.794;6.060;2022-09-14T07:09:18;98577.34;;;16.43;100.00
26719;BME280;14326;50.794;6.060;2022-09-14T07:11:45;98582.63;;;16.45;100.00
26719;BME280;14326;50.794;6.060;2022-09-14T07:14:13;98579.03;;;16.46;100.00
26719;BME280;14326;50.794;6.060;2022-09-14T07:16:40;98587.72;;;16.54;100.00
26719;BME280;14326;50.794;6.060;2022-09-14T07:19:16;98585.78;;;16.59;100.00
26719;BME280;14326;50.794;6.060;2022-09-14T07:21:43;98584.06;;;16.56;100.00
26719;BME280;14326;50.794;6.060;2022-09-14T07:24:14;98577.81;;;16.56;100.00
26719;BME280;14326;50.794;6.060;2022-09-14T07:26:41;98568.88;;;16.55;100.00
26719;BME280;14326;50.794;6.060;2022-09-14T07:29:10;98563.47;;;16.57;100.00
26719;BME280;14326;50.794;6.060;2022-09-14T07:31:40;98568.06;;;16.53;100.00
26719;BME280;14326;50.794;6.060;2022-09-14T07:34:08;98573.38;;;16.55;100.00
26719;BME280;14326;50.794;6.060;2022-09-14T07:36:35;98576.13;;;16.53;100.00
26719;BME280;14326;50.794;6.060;2022-09-14T07:39:03;98586.00;;;16.51;100.00
26719;BME280;14326;50.794;6.060;2022-09-14T07:41:32;98587.66;;;16.55;100.00
26719;BME280;14326;50.794;6.060;2022-09-14T07:44:01;98596.72;;;16.53;100.00
26719;BME280;14326;50.794;6.060;2022-09-14T07:46:36;98592.25;;;16.52;100.00
26719;BME280;14326;50.794;6.060;2022-09-14T07:49:04;98593.97;;;16.54;100.00
26719;BME280;14326;50.794;6.060;2022-09-14T07:51:32;98586.00;;;16.51;100.00
26719;BME280;14326;50.794;6.060;2022-09-14T07:53:59;98588.84;;;16.47;100.00
26719;BME280;14326;50.794;6.060;2022-09-14T07:56:26;98586.19;;;16.45;100.00
26719;BME280;14326;50.794;6.060;2022-09-14T07:58:58;98580.81;;;16.45;100.00
26719;BME280;14326;50.794;6.060;2022-09-14T08:01:25;98582.59;;;16.46;100.00
26719;BME280;14326;50.794;6.060;2022-09-14T08:03:54;98573.63;;;16.47;100.00
26719;BME280;14326;50.794;6.060;2022-09-14T08:06:21;98579.06;;;16.44;100.00
26719;BME280;14326;50.794;6.060;2022-09-14T08:08:50;98578.19;;;16.44;100.00
26719;BME280;14326;50.794;6.060;2022-09-14T08:11:19;98588.38;;;16.32;100.00
26719;BME280;14326;50.794;6.060;2022-09-14T08:13:51;98588.44;;;16.31;100.00
26719;BME280;14326;50.794;6.060;2022-09-14T08:16:20;98583.31;;;16.23;100.00
26719;BME280;14326;50.794;6.060;2022-09-14T08:18:47;98575.94;;;16.30;100.00
26719;BME280;14326;50.794;6.060;2022-09-14T08:21:17;98576.66;;;16.36;100.00
26719;BME280;14326;50.794;6.060;2022-09-14T08:23:44;98578.28;;;16.41;100.00
26719;BME280;14326;50.794;6.060;2022-09-14T08:26:12;98578.34;;;16.39;100.00
26719;BME280;14326;50.794;6.060;2022-09-14T08:28:40;98583.66;;;16.41;100.00
26719;BME280;14326;50.794;6.060;2022-09-14T08:31:08;98588.09;;;16.42;100.00
26719;BME280;14326;50.794;6.060;2022-09-14T08:33:38;98592.56;;;16.43;100.00
26719;BME280;14326;50.794;6.060;2022-09-14T08:36:06;98586.13;;;16.48;100.00
26719;BME280;14326;50.794;6.060;2022-09-14T08:38:33;98594.09;;;16.50;100.00
26719;BME280;14326;50.794;6.060;2022-09-14T08:41:17;98597.81;;;16.46;100.00
26719;BME280;14326;50.794;6.060;2022-09-14T08:43:44;98601.34;;;16.48;100.00
26719;BME280;14326;50.794;6.060;2022-09-14T08:46:24;98601.03;;;16.57;100.00
26719;BME280;14326;50.794;6.060;2022-09-14T08:48:54;98603.59;;;16.61;100.00
26719;BME280;14326;50.794;6.060;2022-09-14T08:51:21;98611.53;;;16.66;100.00
26719;BME280;14326;50.794;6.060;2022-09-14T08:53:49;98606.44;;;16.55;100.00
26719;BME280;14326;50.794;6.060;2022-09-14T08:56:20;98604.75;;;16.53;100.00
26719;BME280;14326;50.794;6.060;2022-09-14T08:59:06;98594.91;;;16.53;100.00
26719;BME280;14326;50.794;6.060;2022-09-14T09:01:43;98598.34;;;16.57;100.00
26719;BME280;14326;50.794;6.060;2022-09-14T09:04:40;98607.06;;;16.66;100.00
26719;BME280;14326;50.794;6.060;2022-09-14T09:07:14;98597.19;;;16.67;100.00
26719;BME280;14326;50.794;6.060;2022-09-14T09:09:46;98601.81;;;16.62;100.00
26719;BME280;14326;50.794;6.060;2022-09-14T09:12:16;98606.06;;;16.69;100.00
26719;BME280;14326;50.794;6.060;2022-09-14T09:14:47;98609.44;;;16.75;100.00
26719;BME280;14326;50.794;6.060;2022-09-14T09:17:21;98610.88;;;16.86;100.00
26719;BME280;14326;50.794;6.060;2022-09-14T09:19:57;98608.28;;;16.84;100.00
26719;BME280;14326;50.794;6.060;2022-09-14T09:22:27;98621.06;;;16.76;100.00
26719;BME280;14326;50.794;6.060;2022-09-14T09:24:57;98622.91;;;16.74;100.00
26719;BME280;14326;50.794;6.060;2022-09-14T09:27:25;98618.44;;;16.73;100.00
26719;BME280;14326;50.794;6.060;2022-09-14T09:29:52;98620.53;;;16.65;100.00
26719;BME280;14326;50.794;6.060;2022-09-14T09:32:22;98610.56;;;16.68;100.00
26719;BME280;14326;50.794;6.060;2022-09-14T09:34:49;98596.25;;;16.68;100.00
26719;BME280;14326;50.794;6.060;2022-09-14T09:37:19;98591.13;;;16.60;100.00
26719;BME280;14326;50.794;6.060;2022-09-14T09:39:46;98589.53;;;16.53;100.00
26719;BME280;14326;50.794;6.060;2022-09-14T09:42:19;98594.09;;;16.50;100.00
26719;BME280;14326;50.794;6.060;2022-09-14T09:44:53;98604.81;;;16.51;100.00
26719;BME280;14326;50.794;6.060;2022-09-14T09:47:25;98591.22;;;16.56;100.00
26719;BME280;14326;50.794;6.060;2022-09-14T09:49:59;98590.31;;;16.57;100.00
26719;BME280;14326;50.794;6.060;2022-09-14T09:52:28;98582.25;;;16.57;100.00
26719;BME280;14326;50.794;6.060;2022-09-14T09:54:56;98589.41;;;16.56;100.00
26719;BME280;14326;50.794;6.060;2022-09-14T09:57:28;98590.25;;;16.60;100.00
26719;BME280;14326;50.794;6.060;2022-09-14T10:00:09;98581.28;;;16.61;100.00
26719;BME280;14326;50.794;6.060;2022-09-14T10:02:37;98590.06;;;16.66;100.00
26719;BME280;14326;50.794;6.060;2022-09-14T10:05:09;98579.06;;;16.73;100.00
26719;BME280;14326;50.794;6.060;2022-09-14T10:07:51;98568.47;;;16.69;100.00
26719;BME280;14326;50.794;6.060;2022-09-14T10:10:22;98577.31;;;16.72;100.00
26719;BME280;14326;50.794;6.060;2022-09-14T10:12:52;98575.50;;;16.73;100.00
26719;BME280;14326;50.794;6.060;2022-09-14T10:15:21;98572.75;;;16.74;100.00
26719;BME280;14326;50.794;6.060;2022-09-14T10:18:04;98569.28;;;16.72;100.00
26719;BME280;14326;50.794;6.060;2022-09-14T10:20:32;98576.47;;;16.70;100.00
26719;BME280;14326;50.794;6.060;2022-09-14T10:23:14;98581.31;;;16.58;100.00
26719;BME280;14326;50.794;6.060;2022-09-14T10:25:41;98585.81;;;16.57;100.00
26719;BME280;14326;50.794;6.060;2022-09-14T10:28:20;98580.41;;;16.59;100.00
26719;BME280;14326;50.794;6.060;2022-09-14T10:30:51;98580.22;;;16.66;100.00
26719;BME280;14326;50.794;6.060;2022-09-14T10:33:20;98583.50;;;16.74;100.00
26719;BME280;14326;50.794;6.060;2022-09-14T10:36:02;98570.22;;;16.70;100.00
26719;BME280;14326;50.794;6.060;2022-09-14T10:38:38;98569.19;;;16.74;100.00
26719;BME280;14326;50.794;6.060;2022-09-14T10:41:17;98562.69;;;16.81;100.00
26719;BME280;14326;50.794;6.060;2022-09-14T10:43:59;98557.28;;;16.83;100.00
26719;BME280;14326;50.794;6.060;2022-09-14T10:46:36;98560.22;;;16.75;100.00
26719;BME280;14326;50.794;6.060;2022-09-14T10:49:20;98550.78;;;16.90;100.00
26719;BME280;14326;50.794;6.060;2022-09-14T10:51:56;98545.84;;;17.02;100.00
26719;BME280;14326;50.794;6.060;2022-09-14T10:54:54;98541.69;;;16.94;100.00
26719;BME280;14326;50.794;6.060;2022-09-14T10:57:29;98539.16;;;16.89;100.00
26719;BME280;14326;50.794;6.060;2022-09-14T11:00:03;98543.66;;;16.89;100.00
26719;BME280;14326;50.794;6.060;2022-09-14T11:03:15;98528.25;;;16.94;100.00
26719;BME280;14326;50.794;6.060;2022-09-14T11:05:49;98524.91;;;16.87;100.00
26719;BME280;14326;50.794;6.060;2022-09-14T11:08:27;98527.38;;;16.93;100.00
26719;BME280;14326;50.794;6.060;2022-09-14T11:11:21;98523.72;;;16.96;100.00
26719;BME280;14326;50.794;6.060;2022-09-14T11:14:01;98524.31;;;17.04;100.00
26719;BME280;14326;50.794;6.060;2022-09-14T11:16:44;98525.00;;;17.10;100.00
26719;BME280;14326;50.794;6.060;2022-09-14T11:19:26;98524.09;;;17.10;100.00
26719;BME280;14326;50.794;6.060;2022-09-14T11:22:02;98516.88;;;17.12;100.00
26719;BME280;14326;50.794;6.060;2022-09-14T11:24:36;98524.16;;;17.08;100.00
26719;BME280;14326;50.794;6.060;2022-09-14T11:27:12;98528.81;;;17.03;100.00
26719;BME280;14326;50.794;6.060;2022-09-14T11:29:47;98524.94;;;17.12;100.00
26719;BME280;14326;50.794;6.060;2022-09-14T11:32:19;98531.19;;;17.12;100.00
26719;BME280;14326;50.794;6.060;2022-09-14T11:34:51;98529.44;;;17.11;100.00
26719;BME280;14326;50.794;6.060;2022-09-14T11:37:28;98518.47;;;17.17;100.00
26719;BME280;14326;50.794;6.060;2022-09-14T11:40:04;98523.72;;;17.20;100.00
26719;BME280;14326;50.794;6.060;2022-09-14T11:42:39;98529.72;;;17.29;100.00
26719;BME280;14326;50.794;6.060;2022-09-14T11:45:14;98530.56;;;17.31;100.00
26719;BME280;14326;50.794;6.060;2022-09-14T11:47:47;98533.53;;;17.22;100.00
26719;BME280;14326;50.794;6.060;2022-09-14T11:50:21;98536.34;;;17.18;100.00
26719;BME280;14326;50.794;6.060;2022-09-14T11:53:04;98536.34;;;17.18;100.00
26719;BME280;14326;50.794;6.060;2022-09-14T11:55:36;98538.13;;;17.19;100.00
26719;BME280;14326;50.794;6.060;2022-09-14T11:58:16;98545.19;;;17.22;100.00
26719;BME280;14326;50.794;6.060;2022-09-14T12:01:00;98527.97;;;17.28;100.00
26719;BME280;14326;50.794;6.060;2022-09-14T12:03:53;98540.38;;;17.32;100.00
26719;BME280;14326;50.794;6.060;2022-09-14T12:06:49;98540.31;;;17.33;100.00
26719;BME280;14326;50.794;6.060;2022-09-14T12:09:42;98532.91;;;17.40;100.00
26719;BME280;14326;50.794;6.060;2022-09-14T12:12:33;98551.22;;;17.29;100.00
26719;BME280;14326;50.794;6.060;2022-09-14T12:15:11;98541.72;;;17.18;100.00
26719;BME280;14326;50.794;6.060;2022-09-14T12:17:40;98549.28;;;17.07;100.00
26719;BME280;14326;50.794;6.060;2022-09-14T12:20:38;98538.63;;;17.04;100.00
26719;BME280;14326;50.794;6.060;2022-09-14T12:23:24;98533.25;;;17.04;100.00
26719;BME280;14326;50.794;6.060;2022-09-14T12:25:59;98530.63;;;17.03;100.00
26719;BME280;14326;50.794;6.060;2022-09-14T12:28:37;98524.44;;;17.01;100.00
26719;BME280;14326;50.794;6.060;2022-09-14T12:31:10;98527.53;;;16.89;100.00
26719;BME280;14326;50.794;6.060;2022-09-14T12:34:03;98525.78;;;16.88;100.00
26719;BME280;14326;50.794;6.060;2022-09-14T12:46:38;98536.09;;;16.73;100.00
26719;BME280;14326;50.794;6.060;2022-09-14T12:54:52;98513.97;;;16.67;100.00
26719;BME280;14326;50.794;6.060;2022-09-14T12:57:29;98521.34;;;16.59;100.00
26719;BME280;14326;50.794;6.060;2022-09-14T13:00:09;98527.63;;;16.58;100.00
26719;BME280;14326;50.794;6.060;2022-09-14T13:03:05;98518.66;;;16.59;100.00
26719;BME280;14326;50.794;6.060;2022-09-14T13:05:42;98525.72;;;16.63;100.00
26719;BME280;14326;50.794;6.060;2022-09-14T13:08:10;98521.13;;;16.66;100.00
26719;BME280;14326;50.794;6.060;2022-09-14T13:10:43;98523.66;;;16.71;100.00
26719;BME280;14326;50.794;6.060;2022-09-14T13:13:14;98518.16;;;16.74;100.00
26719;BME280;14326;50.794;6.060;2022-09-14T13:15:49;98504.81;;;16.72;100.00
26719;BME280;14326;50.794;6.060;2022-09-14T13:18:30;98494.78;;;16.77;100.00
26719;BME280;14326;50.794;6.060;2022-09-14T13:20:59;98493.78;;;16.80;100.00
26719;BME280;14326;50.794;6.060;2022-09-14T13:23:28;98511.78;;;16.78;100.00
26719;BME280;14326;50.794;6.060;2022-09-14T13:25:55;98524.78;;;16.64;100.00
26719;BME280;14326;50.794;6.060;2022-09-14T13:28:25;98524.38;;;16.48;100.00
26719;BME280;14326;50.794;6.060;2022-09-14T13:30:54;98518.38;;;16.40;100.00
26719;BME280;14326;50.794;6.060;2022-09-14T13:33:22;98516.78;;;16.33;100.00
26719;BME280;14326;50.794;6.060;2022-09-14T13:35:52;98524.66;;;16.39;100.00
26719;BME280;14326;50.794;6.060;2022-09-14T13:38:22;98525.84;;;16.30;100.00
26719;BME280;14326;50.794;6.060;2022-09-14T13:40:51;98515.09;;;16.30;100.00
26719;BME280;14326;50.794;6.060;2022-09-14T13:43:20;98519.16;;;16.14;100.00
26719;BME280;14326;50.794;6.060;2022-09-14T13:45:48;98523.25;;;15.98;100.00
26719;BME280;14326;50.794;6.060;2022-09-14T13:48:16;98517.34;;;15.87;100.00
26719;BME280;14326;50.794;6.060;2022-09-14T13:50:46;98506.84;;;15.79;100.00
26719;BME280;14326;50.794;6.060;2022-09-14T13:53:43;98504.50;;;15.67;100.00
26719;BME280;14326;50.794;6.060;2022-09-14T13:56:22;98497.81;;;15.51;100.00
26719;BME280;14326;50.794;6.060;2022-09-14T13:58:51;98500.53;;;15.49;100.00
26719;BME280;14326;50.794;6.060;2022-09-14T14:01:38;98489.66;;;15.55;100.00
26719;BME280;14326;50.794;6.060;2022-09-14T14:04:05;98470.09;;;15.53;100.00
26719;BME280;14326;50.794;6.060;2022-09-14T14:06:33;98456.66;;;15.55;100.00
26719;BME280;14326;50.794;6.060;2022-09-14T14:09:04;98454.50;;;15.35;100.00
26719;BME280;14326;50.794;6.060;2022-09-14T14:11:34;98466.69;;;15.45;100.00
26719;BME280;14326;50.794;6.060;2022-09-14T14:14:17;98469.91;;;15.60;100.00
26719;BME280;14326;50.794;6.060;2022-09-14T14:17:10;98473.88;;;15.76;100.00
26719;BME280;14326;50.794;6.060;2022-09-14T14:19:47;98476.19;;;15.88;100.00
26719;BME280;14326;50.794;6.060;2022-09-14T14:22:19;98477.88;;;15.90;100.00
26719;BME280;14326;50.794;6.060;2022-09-14T14:24:48;98485.44;;;15.78;100.00
26719;BME280;14326;50.794;6.060;2022-09-14T14:27:26;98493.31;;;15.84;100.00
26719;BME280;14326;50.794;6.060;2022-09-14T14:29:54;98492.09;;;15.94;100.00
26719;BME280;14326;50.794;6.060;2022-09-14T14:32:21;98487.69;;;15.91;100.00
26719;BME280;14326;50.794;6.060;2022-09-14T14:34:48;98489.69;;;15.85;100.00
26719;BME280;14326;50.794;6.060;2022-09-14T14:37:17;98481.00;;;15.77;100.00
26719;BME280;14326;50.794;6.060;2022-09-14T14:39:44;98482.00;;;15.73;100.00
26719;BME280;14326;50.794;6.060;2022-09-14T14:42:12;98476.84;;;15.67;100.00
26719;BME280;14326;50.794;6.060;2022-09-14T14:44:39;98486.69;;;15.66;100.00
26719;BME280;14326;50.794;6.060;2022-09-14T14:47:09;98486.72;;;15.65;100.00
26719;BME280;14326;50.794;6.060;2022-09-14T14:49:36;98489.59;;;15.59;100.00
26719;BME280;14326;50.794;6.060;2022-09-14T14:52:02;98478.59;;;15.68;100.00
26719;BME280;14326;50.794;6.060;2022-09-14T14:54:31;98471.19;;;15.76;100.00
26719;BME280;14326;50.794;6.060;2022-09-14T14:56:57;98473.69;;;15.82;100.00
26719;BME280;14326;50.794;6.060;2022-09-14T14:59:28;98475.28;;;15.89;100.00
26719;BME280;14326;50.794;6.060;2022-09-14T15:01:56;98463.50;;;15.93;100.00
26719;BME280;14326;50.794;6.060;2022-09-14T15:04:23;98468.72;;;15.97;100.00
26719;BME280;14326;50.794;6.060;2022-09-14T15:06:50;98462.59;;;15.94;100.00
26719;BME280;14326;50.794;6.060;2022-09-14T15:09:18;98471.47;;;15.96;100.00
26719;BME280;14326;50.794;6.060;2022-09-14T15:11:49;98478.31;;;16.06;100.00
26719;BME280;14326;50.794;6.060;2022-09-14T15:14:19;98475.63;;;16.06;100.00
26719;BME280;14326;50.794;6.060;2022-09-14T15:16:47;98484.41;;;16.11;100.00
26719;BME280;14326;50.794;6.060;2022-09-14T15:19:14;98493.47;;;16.07;100.00
26719;BME280;14326;50.794;6.060;2022-09-14T15:21:42;98500.69;;;16.05;100.00
26719;BME280;14326;50.794;6.060;2022-09-14T15:24:09;98497.34;;;15.97;100.00
26719;BME280;14326;50.794;6.060;2022-09-14T15:26:36;98502.91;;;15.91;100.00
26719;BME280;14326;50.794;6.060;2022-09-14T15:29:03;98506.47;;;15.91;100.00
26719;BME280;14326;50.794;6.060;2022-09-14T15:31:30;98507.34;;;15.92;100.00
26719;BME280;14326;50.794;6.060;2022-09-14T15:33:58;98507.19;;;15.96;100.00
26719;BME280;14326;50.794;6.060;2022-09-14T15:36:39;98502.81;;;15.94;100.00
26719;BME280;14326;50.794;6.060;2022-09-14T15:39:10;98504.66;;;15.92;100.00
26719;BME280;14326;50.794;6.060;2022-09-14T15:41:37;98493.75;;;15.98;100.00
26719;BME280;14326;50.794;6.060;2022-09-14T15:44:04;98492.13;;;15.92;100.00
26719;BME280;14326;50.794;6.060;2022-09-14T15:46:31;98491.94;;;15.98;100.00
26719;BME280;14326;50.794;6.060;2022-09-14T15:49:03;98491.00;;;16.01;100.00
26719;BME280;14326;50.794;6.060;2022-09-14T15:51:32;98495.44;;;16.02;100.00
26719;BME280;14326;50.794;6.060;2022-09-14T15:53:59;98498.13;;;16.02;100.00
26719;BME280;14326;50.794;6.060;2022-09-14T15:56:27;98497.97;;;16.07;100.00
26719;BME280;14326;50.794;6.060;2022-09-14T15:58:57;98498.94;;;16.04;100.00
26719;BME280;14326;50.794;6.060;2022-09-14T16:01:27;98500.00;;;15.98;100.00
26719;BME280;14326;50.794;6.060;2022-09-14T16:03:58;98499.41;;;15.89;100.00
26719;BME280;14326;50.794;6.060;2022-09-14T16:06:27;98493.50;;;15.78;100.00
26719;BME280;14326;50.794;6.060;2022-09-14T16:08:55;98487.28;;;15.76;100.00
26719;BME280;14326;50.794;6.060;2022-09-14T16:11:23;98489.13;;;15.74;100.00
26719;BME280;14326;50.794;6.060;2022-09-14T16:13:50;98490.25;;;15.67;100.00
26719;BME280;14326;50.794;6.060;2022-09-14T16:16:19;98487.78;;;15.59;100.00
26719;BME280;14326;50.794;6.060;2022-09-14T16:18:48;98488.88;;;15.52;100.00
26719;BME280;14326;50.794;6.060;2022-09-14T16:21:19;98499.59;;;15.52;100.00
26719;BME280;14326;50.794;6.060;2022-09-14T16:23:53;98495.13;;;15.51;100.00
26719;BME280;14326;50.794;6.060;2022-09-14T16:26:22;98499.59;;;15.52;100.00
26719;BME280;14326;50.794;6.060;2022-09-14T16:28:50;98501.41;;;15.50;100.00
26719;BME280;14326;50.794;6.060;2022-09-14T16:31:22;98505.75;;;15.55;100.00
26719;BME280;14326;50.794;6.060;2022-09-14T16:33:51;98514.72;;;15.54;100.00
26719;BME280;14326;50.794;6.060;2022-09-14T16:36:21;98519.13;;;15.55;100.00
26719;BME280;14326;50.794;6.060;2022-09-14T16:38:53;98524.59;;;15.52;100.00
26719;BME280;14326;50.794;6.060;2022-09-14T16:41:21;98522.81;;;15.53;100.00
26719;BME280;14326;50.794;6.060;2022-09-14T16:43:53;98525.50;;;15.51;100.00
26719;BME280;14326;50.794;6.060;2022-09-14T16:46:21;98525.47;;;15.54;100.00
26719;BME280;14326;50.794;6.060;2022-09-14T16:48:48;98530.72;;;15.57;100.00
26719;BME280;14326;50.794;6.060;2022-09-14T16:51:16;98528.13;;;15.54;100.00
26719;BME280;14326;50.794;6.060;2022-09-14T16:53:44;98527.31;;;15.49;100.00
26719;BME280;14326;50.794;6.060;2022-09-14T16:56:15;98530.09;;;15.46;100.00
26719;BME280;14326;50.794;6.060;2022-09-14T16:58:42;98526.56;;;15.44;100.00
26719;BME280;14326;50.794;6.060;2022-09-14T17:01:12;98530.88;;;15.50;100.00
26719;BME280;14326;50.794;6.060;2022-09-14T17:03:40;98537.06;;;15.55;100.00
26719;BME280;14326;50.794;6.060;2022-09-14T17:06:09;98537.06;;;15.55;100.00
26719;BME280;14326;50.794;6.060;2022-09-14T17:08:37;98540.69;;;15.52;100.00
26719;BME280;14326;50.794;6.060;2022-09-14T17:11:04;98536.22;;;15.51;100.00
26719;BME280;14326;50.794;6.060;2022-09-14T17:13:33;98534.53;;;15.47;100.00
26719;BME280;14326;50.794;6.060;2022-09-14T17:16:01;98539.97;;;15.44;100.00
26719;BME280;14326;50.794;6.060;2022-09-14T17:18:28;98532.78;;;15.46;100.00
26719;BME280;14326;50.794;6.060;2022-09-14T17:20:57;98532.09;;;15.38;100.00
26719;BME280;14326;50.794;6.060;2022-09-14T17:23:24;98529.53;;;15.35;100.00
26719;BME280;14326;50.794;6.060;2022-09-14T17:25:52;98533.09;;;15.36;100.00
26719;BME280;14326;50.794;6.060;2022-09-14T17:28:20;98532.84;;;15.43;100.00
26719;BME280;14326;50.794;6.060;2022-09-14T17:30:50;98526.41;;;15.50;100.00
26719;BME280;14326;50.794;6.060;2022-09-14T17:33:18;98529.09;;;15.50;100.00
26719;BME280;14326;50.794;6.060;2022-09-14T17:35:45;98529.06;;;15.53;100.00
26719;BME280;14326;50.794;6.060;2022-09-14T17:38:15;98527.31;;;15.49;100.00
26719;BME280;14326;50.794;6.060;2022-09-14T17:40:42;98522.34;;;15.37;100.00
26719;BME280;14326;50.794;6.060;2022-09-14T17:43:10;98534.88;;;15.35;100.00
26719;BME280;14326;50.794;6.060;2022-09-14T17:45:37;98537.56;;;15.35;100.00
26719;BME280;14326;50.794;6.060;2022-09-14T17:48:06;98536.56;;;15.39;100.00
26719;BME280;14326;50.794;6.060;2022-09-14T17:50:33;98541.69;;;15.48;100.00
26719;BME280;14326;50.794;6.060;2022-09-14T17:52:59;98541.91;;;15.39;100.00
26719;BME280;14326;50.794;6.060;2022-09-14T17:55:26;98549.94;;;15.39;100.00
26719;BME280;14326;50.794;6.060;2022-09-14T17:57:53;98557.16;;;15.37;100.00
26719;BME280;14326;50.794;6.060;2022-09-14T18:00:19;98561.72;;;15.34;100.00
26719;BME280;14326;50.794;6.060;2022-09-14T18:02:49;98557.38;;;15.30;100.00
26719;BME280;14326;50.794;6.060;2022-09-14T18:05:18;98569.88;;;15.29;100.00
26719;BME280;14326;50.794;6.060;2022-09-14T18:07:45;98574.25;;;15.32;100.00
26719;BME280;14326;50.794;6.060;2022-09-14T18:10:14;98573.50;;;15.27;100.00
26719;BME280;14326;50.794;6.060;2022-09-14T18:12:47;98574.22;;;15.33;100.00
26719;BME280;14326;50.794;6.060;2022-09-14T18:15:19;98576.91;;;15.33;100.00
26719;BME280;14326;50.794;6.060;2022-09-14T18:17:48;98582.19;;;15.36;100.00
26719;BME280;14326;50.794;6.060;2022-09-14T18:20:19;98575.72;;;15.43;100.00
26719;BME280;14326;50.794;6.060;2022-09-14T18:22:47;98575.72;;;15.43;100.00
26719;BME280;14326;50.794;6.060;2022-09-14T18:25:15;98567.81;;;15.39;100.00
26719;BME280;14326;50.794;6.060;2022-09-14T18:27:43;98568.91;;;15.32;100.00
26719;BME280;14326;50.794;6.060;2022-09-14T18:30:12;98573.66;;;15.21;100.00
26719;BME280;14326;50.794;6.060;2022-09-14T18:32:40;98572.94;;;15.14;100.00
26719;BME280;14326;50.794;6.060;2022-09-14T18:35:11;98566.03;;;15.05;100.00
26719;BME280;14326;50.794;6.060;2022-09-14T18:37:41;98565.28;;;15.00;100.00
26719;BME280;14326;50.794;6.060;2022-09-14T18:40:09;98566.22;;;14.98;100.00
26719;BME280;14326;50.794;6.060;2022-09-14T18:42:36;98582.09;;;15.07;100.00
26719;BME280;14326;50.794;6.060;2022-09-14T18:45:06;98582.88;;;15.10;100.00
26719;BME280;14326;50.794;6.060;2022-09-14T18:47:34;98579.28;;;15.11;100.00
26719;BME280;14326;50.794;6.060;2022-09-14T18:50:03;98585.34;;;15.18;100.00
26719;BME280;14326;50.794;6.060;2022-09-14T18:52:32;98591.47;;;15.23;100.00
26719;BME280;14326;50.794;6.060;2022-09-14T18:55:01;98587.03;;;15.22;100.00
26719;BME280;14326;50.794;6.060;2022-09-14T18:57:28;98597.88;;;15.18;100.00
26719;BME280;14326;50.794;6.060;2022-09-14T18:59:55;98589.00;;;15.14;100.00
26719;BME280;14326;50.794;6.060;2022-09-14T19:02:23;98588.47;;;15.01;100.00
26719;BME280;14326;50.794;6.060;2022-09-14T19:04:52;98588.41;;;15.03;100.00
26719;BME280;14326;50.794;6.060;2022-09-14T19:07:20;98589.13;;;15.09;100.00
26719;BME280;14326;50.794;6.060;2022-09-14T19:09:47;98598.19;;;15.05;100.00
26719;BME280;14326;50.794;6.060;2022-09-14T19:12:16;98587.59;;;15.01;100.00
26719;BME280;14326;50.794;6.060;2022-09-14T19:14:42;98592.41;;;14.87;100.00
26719;BME280;14326;50.794;6.060;2022-09-14T19:17:09;98604.16;;;14.80;100.00
26719;BME280;14326;50.794;6.060;2022-09-14T19:19:36;98603.13;;;14.85;100.00
26719;BME280;14326;50.794;6.060;2022-09-14T19:22:03;98609.31;;;14.89;100.00
26719;BME280;14326;50.794;6.060;2022-09-14T19:24:30;98602.84;;;14.97;100.00
26719;BME280;14326;50.794;6.060;2022-09-14T19:26:57;98591.09;;;15.03;100.00